Time;durP1;ratioP1;P1;durP2;ratioP2;P2;SDS_P1;SDS_P2;PMS_P1;PMS_P2;Temp;Humidity;BMP_temperature;BMP_pressure;BME280_temperature;BME280_humidity;BME280_pressure;Samples;Min_cycle;Max_cycle;Signal;HPM_P1;HPM_P2
2023/09/09 00:01:22;;;;;;;1.90;1.80;;;;;18.80;96186.00;;;;5055945;28;20601;-60
2023/09/09 00:03:57;;;;;;;1.60;1.50;;;;;18.70;96186.00;;;;5055506;28;20215;-61
2023/09/09 00:06:30;;;;;;;1.53;1.43;;;;;18.70;96182.00;;;;5055556;28;20184;-60
2023/09/09 00:08:57;;;;;;;3.40;2.33;;;;;18.60;96179.00;;;;5055252;28;20263;-61
2023/09/09 00:11:41;;;;;;;2.07;1.97;;;;;18.90;96184.00;;;;5037236;28;20215;-61
2023/09/09 00:14:18;;;;;;;2.03;1.93;;;;;18.90;96175.00;;;;5055370;28;20224;-60
2023/09/09 00:17:08;;;;;;;1.87;1.77;;;;;18.90;96178.00;;;;5055190;28;20191;-60
2023/09/09 00:19:57;;;;;;;1.80;1.70;;;;;18.90;96178.00;;;;5055257;28;20176;-61
2023/09/09 00:22:44;;;;;;;1.77;1.67;;;;;18.90;96178.00;;;;5055073;28;20208;-61
2023/09/09 00:25:45;;;;;;;1.17;1.17;;;;;18.80;96178.00;;;;4997322;28;20580;-61
2023/09/09 00:28:33;;;;;;;2.83;2.67;;;;;18.80;96176.00;;;;5055364;28;20180;-60
2023/09/09 00:31:00;;;;;;;1.93;1.60;;;;;18.60;96177.00;;;;5054905;28;20259;-61
2023/09/09 00:33:32;;;;;;;1.60;1.53;;;;;18.60;96179.00;;;;5054651;28;20216;-60
2023/09/09 00:36:09;;;;;;;1.53;1.43;;;;;18.60;96182.00;;;;5055237;28;20189;-60
2023/09/09 00:38:51;;;;;;;2.10;2.00;;;;;18.50;96169.00;;;;5055034;28;20582;-61
2023/09/09 00:41:31;;;;;;;1.27;1.27;;;;;18.50;96174.00;;;;5055251;28;20665;-61
2023/09/09 00:43:59;;;;;;;3.53;2.37;;;;;18.40;96178.00;;;;5054572;28;20251;-60
2023/09/09 00:46:32;;;;;;;1.80;1.63;;;;;18.40;96175.00;;;;5053768;28;20194;-60
2023/09/09 00:49:04;;;;;;;1.33;1.33;;;;;18.20;96179.00;;;;5054588;28;20199;-61
2023/09/09 00:51:44;;;;;;;2.00;1.90;;;;;18.30;96172.00;;;;5054736;28;20219;-60
2023/09/09 00:54:18;;;;;;;3.37;1.90;;;;;18.40;96172.00;;;;5054463;28;20227;-61
2023/09/09 00:56:52;;;;;;;1.97;1.87;;;;;18.40;96164.00;;;;5054704;28;20283;-60
2023/09/09 00:59:30;;;;;;;2.43;2.27;;;;;18.10;96166.00;;;;5054450;28;20188;-61
2023/09/09 01:02:02;;;;;;;1.47;1.43;;;;;18.20;96163.00;;;;5054152;28;20184;-60
2023/09/09 01:04:33;;;;;;;1.47;1.37;;;;;18.20;96163.00;;;;5054102;28;20238;-60
2023/09/09 01:07:04;;;;;;;2.07;1.93;;;;;18.20;96164.00;;;;5054425;28;20523;-60
2023/09/09 01:09:37;;;;;;;3.07;2.70;;;;;18.20;96168.00;;;;5054041;28;20196;-60
2023/09/09 01:12:14;;;;;;;1.50;1.40;;;;;18.20;96165.00;;;;5054554;28;20616;-61
2023/09/09 01:14:56;;;;;;;2.43;2.23;;;;;18.10;96166.00;;;;5053993;28;20669;-61
2023/09/09 01:17:40;;;;;;;1.33;1.33;;;;;18.10;96162.00;;;;5054308;28;20643;-61
2023/09/09 01:23:14;;;;;;;2.43;2.20;;;;;18.10;96169.00;;;;5053082;28;20204;-60
2023/09/09 01:25:52;;;;;;;1.33;1.30;;;;;18.10;96166.00;;;;5036104;28;20192;-60
2023/09/09 01:28:22;;;;;;;2.53;2.20;;;;;18.10;96172.00;;;;5053739;28;20208;-60
2023/09/09 01:30:52;;;;;;;1.87;1.77;;;;;18.00;96170.00;;;;5054079;28;20184;-60
2023/09/09 01:36:55;;;;;;;2.40;2.20;;;;;18.00;96167.00;;;;5052390;28;20212;-60
2023/09/09 01:39:43;;;;;;;1.60;1.50;;;;;17.90;96162.00;;;;5053760;28;20218;-60
2023/09/09 01:42:23;;;;;;;1.57;1.47;;;;;17.80;96164.00;;;;5053797;28;20188;-61
2023/09/09 01:44:58;;;;;;;1.70;1.60;;;;;17.80;96163.00;;;;5053378;28;20226;-60
2023/09/09 01:47:26;;;;;;;2.43;2.03;;;;;17.70;96171.00;;;;5053656;28;20249;-60
2023/09/09 01:50:18;;;;;;;1.60;1.50;;;;;17.70;96165.00;;;;5053292;28;20193;-60
2023/09/09 01:52:48;;;;;;;1.93;1.83;;;;;17.70;96168.00;;;;5053573;28;20228;-61
2023/09/09 01:55:22;;;;;;;3.23;2.97;;;;;17.80;96161.00;;;;5053367;28;20647;-60
2023/09/09 01:57:51;;;;;;;2.33;1.80;;;;;17.80;96156.00;;;;5053661;28;20188;-61
2023/09/09 02:00:34;;;;;;;;;;;;;;;;;;;;;
2023/09/09 02:03:14;;;;;;;1.87;1.77;;;;;17.70;96172.00;;;;5048091;28;20214;-61
2023/09/09 02:05:48;;;;;;;2.17;1.67;;;;;17.50;96170.00;;;;5053496;28;20311;-61
2023/09/09 02:08:29;;;;;;;2.10;1.93;;;;;17.40;96169.00;;;;5053570;28;20286;-61
2023/09/09 02:11:05;;;;;;;2.03;1.93;;;;;17.40;96165.00;;;;5053941;28;20194;-61
2023/09/09 02:13:37;;;;;;;1.80;1.70;;;;;17.30;96166.00;;;;5053732;28;20228;-61
2023/09/09 02:16:18;;;;;;;1.00;1.00;;;;;17.40;96164.00;;;;5053353;28;20201;-61
2023/09/09 02:21:41;;;;;;;2.37;2.17;;;;;17.30;96162.00;;;;5052788;28;20234;-60
2023/09/09 02:26:56;;;;;;;1.23;1.23;;;;;17.40;96162.00;;;;5052220;28;20204;-60
2023/09/09 02:29:26;;;;;;;1.53;1.43;;;;;17.30;96155.00;;;;5053392;28;20223;-60
2023/09/09 02:31:59;;;;;;;1.93;1.83;;;;;17.20;96155.00;;;;5053571;28;20176;-61
2023/09/09 02:34:37;;;;;;;1.00;1.00;;;;;17.20;96159.00;;;;5053463;28;20574;-60
2023/09/09 02:37:22;;;;;;;2.20;2.00;;;;;17.30;96155.00;;;;5053010;28;20649;-60
2023/09/09 02:39:53;;;;;;;2.07;1.97;;;;;17.30;96153.00;;;;5052992;28;20204;-60
2023/09/09 02:42:28;;;;;;;1.70;1.60;;;;;17.20;96153.00;;;;5052801;28;20184;-60
2023/09/09 02:44:59;;;;;;;1.27;1.27;;;;;17.20;96155.00;;;;5052786;28;20247;-60
2023/09/09 02:47:29;;;;;;;1.80;1.70;;;;;17.20;96143.00;;;;5052955;28;20534;-60
2023/09/09 02:49:56;;;;;;;2.73;2.53;;;;;17.00;96150.00;;;;5053120;28;20222;-60
2023/09/09 02:52:34;;;;;;;4.73;1.77;;;;;17.00;96150.00;;;;5053200;28;20169;-60
2023/09/09 02:55:10;;;;;;;5.27;2.30;;;;;17.00;96145.00;;;;5052888;28;20308;-60
2023/09/09 02:57:49;;;;;;;1.60;1.50;;;;;17.00;96149.00;;;;5052904;28;20635;-60
2023/09/09 03:00:17;;;;;;;2.43;2.33;;;;;16.90;96149.00;;;;5053123;28;20576;-60
2023/09/09 03:02:44;;;;;;;1.63;1.53;;;;;17.00;96150.00;;;;5052790;28;20578;-61
2023/09/09 03:05:13;;;;;;;2.80;2.60;;;;;17.00;96145.00;;;;5052918;28;20238;-60
2023/09/09 03:07:45;;;;;;;2.37;2.27;;;;;17.00;96148.00;;;;5052585;28;20597;-60
2023/09/09 03:10:17;;;;;;;1.80;1.70;;;;;17.10;96148.00;;;;5054987;28;20176;-61
2023/09/09 03:13:02;;;;;;;2.20;2.07;;;;;17.00;96150.00;;;;5056406;28;20635;-59
2023/09/09 03:15:40;;;;;;;4.07;2.80;;;;;17.10;96143.00;;;;5056423;28;20761;-59
2023/09/09 03:18:13;;;;;;;1.50;1.40;;;;;17.00;96144.00;;;;5056921;28;20589;-61
2023/09/09 03:20:57;;;;;;;1.23;1.23;;;;;16.90;96145.00;;;;5056694;28;20214;-61
2023/09/09 03:26:26;;;;;;;1.87;1.77;;;;;16.90;96145.00;;;;5056347;28;20185;-60
2023/09/09 03:29:20;;;;;;;2.43;2.33;;;;;16.90;96140.00;;;;5056121;28;20259;-61
2023/09/09 03:31:49;;;;;;;2.27;1.77;;;;;16.90;96138.00;;;;5054756;28;20203;-59
2023/09/09 03:34:29;;;;;;;1.60;1.50;;;;;16.90;96147.00;;;;5055893;28;20594;-59
2023/09/09 03:37:06;;;;;;;2.97;2.47;;;;;16.90;96143.00;;;;5056141;28;20176;-60
2023/09/09 03:39:38;;;;;;;2.87;2.17;;;;;16.80;96135.00;;;;5055892;28;20204;-61
2023/09/09 03:42:09;;;;;;;2.63;2.43;;;;;16.90;96139.00;;;;5055835;28;20242;-60
2023/09/09 03:44:39;;;;;;;2.17;2.07;;;;;16.70;96131.00;;;;5056384;28;20208;-60
2023/09/09 03:47:10;;;;;;;2.23;2.03;;;;;16.60;96143.00;;;;5055707;28;20745;-61
2023/09/09 03:49:44;;;;;;;2.20;2.00;;;;;16.60;96144.00;;;;5055607;28;20211;-60
2023/09/09 03:52:16;;;;;;;1.90;1.80;;;;;16.50;96132.00;;;;5055979;28;20187;-60
2023/09/09 03:54:46;;;;;;;2.73;2.47;;;;;16.50;96143.00;;;;5056041;28;20231;-60
2023/09/09 03:57:15;;;;;;;2.50;2.30;;;;;16.50;96133.00;;;;5055645;28;20195;-60
2023/09/09 04:02:32;;;;;;;2.23;2.13;;;;;16.40;96133.00;;;;5055640;28;20208;-60
2023/09/09 04:05:09;;;;;;;1.80;1.70;;;;;16.30;96135.00;;;;5055477;28;20220;-60
2023/09/09 04:07:36;;;;;;;2.57;2.33;;;;;16.30;96140.00;;;;5055420;28;20183;-60
2023/09/09 04:10:04;;;;;;;2.10;2.00;;;;;16.30;96137.00;;;;5055355;28;20220;-60
2023/09/09 04:12:37;;;;;;;2.17;2.07;;;;;16.30;96142.00;;;;5054649;28;20207;-60
2023/09/09 04:15:11;;;;;;;1.87;1.77;;;;;16.20;96145.00;;;;5055128;28;20244;-60
2023/09/09 04:17:44;;;;;;;1.00;1.00;;;;;16.30;96148.00;;;;5055460;28;20600;-61
2023/09/09 04:20:14;;;;;;;2.53;2.27;;;;;16.20;96141.00;;;;5055002;28;20185;-61
2023/09/09 04:22:42;;;;;;;1.93;1.83;;;;;16.20;96142.00;;;;5055234;28;20185;-60
2023/09/09 04:25:14;;;;;;;2.53;2.33;;;;;16.30;96155.00;;;;5055027;28;20216;-60
2023/09/09 04:27:49;;;;;;;2.10;2.00;;;;;16.20;96142.00;;;;5055188;28;20184;-61
2023/09/09 04:30:20;;;;;;;1.33;1.33;;;;;16.10;96149.00;;;;5055163;28;20237;-60
2023/09/09 04:32:54;;;;;;;1.77;1.50;;;;;16.10;96151.00;;;;5054879;28;20238;-60
2023/09/09 04:35:29;;;;;;;2.50;2.30;;;;;16.10;96152.00;;;;5055011;28;20243;-60
2023/09/09 04:37:59;;;;;;;2.50;2.20;;;;;16.10;96151.00;;;;5054813;28;20180;-60
2023/09/09 04:40:29;;;;;;;1.83;1.73;;;;;16.10;96151.00;;;;5054737;28;20572;-60
2023/09/09 04:42:59;;;;;;;2.13;2.03;;;;;16.10;96136.00;;;;5054805;28;20211;-60
2023/09/09 04:45:33;;;;;;;1.60;1.53;;;;;16.10;96141.00;;;;5054616;28;20257;-60
2023/09/09 04:48:06;;;;;;;3.23;2.53;;;;;16.00;96150.00;;;;5054797;28;20186;-60
2023/09/09 04:50:36;;;;;;;1.90;1.80;;;;;16.00;96149.00;;;;5054780;28;20180;-60
2023/09/09 04:53:04;;;;;;;1.20;1.20;;;;;16.20;96153.00;;;;5054558;28;20188;-60
2023/09/09 04:55:33;;;;;;;1.00;1.00;;;;;16.30;96150.00;;;;5054310;28;20246;-60
2023/09/09 04:58:06;;;;;;;2.40;1.87;;;;;16.20;96160.00;;;;5054645;28;20192;-61
2023/09/09 05:00:35;;;;;;;1.60;1.57;;;;;16.10;96149.00;;;;5054303;28;20196;-60
2023/09/09 05:03:07;;;;;;;1.60;1.50;;;;;16.10;96153.00;;;;5054536;28;20176;-60
2023/09/09 05:05:42;;;;;;;2.53;2.33;;;;;15.90;96156.00;;;;5054253;28;20188;-61
2023/09/09 05:08:17;;;;;;;1.83;1.73;;;;;15.90;96157.00;;;;5054089;28;20267;-61
2023/09/09 05:10:47;;;;;;;1.80;1.67;;;;;15.80;96157.00;;;;5054269;28;20196;-60
2023/09/09 05:13:21;;;;;;;4.30;2.53;;;;;15.90;96160.00;;;;5053862;28;20199;-60
2023/09/09 05:15:52;;;;;;;2.33;2.13;;;;;16.00;96151.00;;;;5035798;28;20238;-60
2023/09/09 05:18:19;;;;;;;3.03;2.70;;;;;16.10;96158.00;;;;5054118;28;20660;-60
2023/09/09 05:20:55;;;;;;;1.37;1.37;;;;;16.10;96163.00;;;;5036442;28;20601;-60
2023/09/09 05:23:25;;;;;;;1.60;1.50;;;;;16.10;96167.00;;;;5054007;28;20180;-61
2023/09/09 05:25:53;;;;;;;1.80;1.70;;;;;16.30;96166.00;;;;5054012;28;20279;-60
2023/09/09 05:28:22;;;;;;;1.67;1.57;;;;;16.30;96167.00;;;;5053926;28;20246;-60
2023/09/09 05:30:52;;;;;;;1.53;1.43;;;;;16.30;96168.00;;;;5054024;28;20192;-61
2023/09/09 05:33:20;;;;;;;10.93;2.27;;;;;16.30;96170.00;;;;5053249;28;20196;-60
2023/09/09 05:35:52;;;;;;;1.87;1.77;;;;;16.20;96178.00;;;;5053667;28;20227;-60
2023/09/09 05:38:21;;;;;;;1.73;1.63;;;;;16.20;96179.00;;;;5053463;28;20259;-60
2023/09/09 05:40:49;;;;;;;1.80;1.57;;;;;16.20;96175.00;;;;5054247;28;20629;-60
2023/09/09 05:43:18;;;;;;;2.23;2.07;;;;;16.20;96179.00;;;;5053717;28;20279;-60
2023/09/09 05:45:47;;;;;;;3.87;1.93;;;;;16.20;96178.00;;;;5054021;28;20219;-60
2023/09/09 05:48:21;;;;;;;1.67;1.57;;;;;16.30;96175.00;;;;5053550;28;20192;-60
2023/09/09 05:50:51;;;;;;;2.50;2.30;;;;;16.30;96179.00;;;;5053717;28;20191;-62
2023/09/09 05:53:21;;;;;;;2.37;2.00;;;;;16.40;96175.00;;;;5053531;28;20187;-60
2023/09/09 05:55:56;;;;;;;2.33;2.23;;;;;16.50;96174.00;;;;5053660;28;20219;-60
2023/09/09 05:58:26;;;;;;;1.70;1.60;;;;;16.50;96177.00;;;;5053363;28;20621;-60
2023/09/09 06:00:58;;;;;;;1.77;1.67;;;;;16.60;96174.00;;;;5053594;28;20196;-60
2023/09/09 06:03:38;;;;;;;2.03;1.90;;;;;16.60;96185.00;;;;5035415;28;20191;-60
2023/09/09 06:06:17;;;;;;;1.60;1.50;;;;;16.60;96178.00;;;;5053466;28;20234;-60
2023/09/09 06:08:50;;;;;;;2.00;1.63;;;;;16.70;96181.00;;;;5054007;28;20537;-60
2023/09/09 06:11:28;;;;;;;1.57;1.47;;;;;16.70;96179.00;;;;5053453;28;20211;-61
2023/09/09 06:13:56;;;;;;;1.40;1.40;;;;;16.80;96185.00;;;;5053563;28;20218;-61
2023/09/09 06:16:25;;;;;;;3.37;3.07;;;;;17.00;96187.00;;;;5035047;28;20643;-61
2023/09/09 06:18:56;;;;;;;1.40;1.40;;;;;17.10;96190.00;;;;5053144;28;20203;-61
2023/09/09 06:21:24;;;;;;;2.30;2.10;;;;;17.10;96184.00;;;;5053416;28;20183;-60
2023/09/09 06:23:54;;;;;;;2.43;2.33;;;;;17.20;96184.00;;;;5052656;28;20226;-60
2023/09/09 06:26:31;;;;;;;3.13;1.80;;;;;17.20;96199.00;;;;5053191;28;20540;-60
2023/09/09 06:29:01;;;;;;;1.80;1.70;;;;;17.20;96198.00;;;;5053062;28;20180;-60
2023/09/09 06:31:29;;;;;;;1.90;1.80;;;;;17.30;96191.00;;;;5052776;28;20228;-61
2023/09/09 06:34:03;;;;;;;2.83;2.63;;;;;17.20;96194.00;;;;5034673;28;20578;-61
2023/09/09 06:36:32;;;;;;;1.97;1.83;;;;;17.40;96193.00;;;;5052967;28;20184;-57
2023/09/09 06:39:04;;;;;;;1.43;1.43;;;;;17.50;96198.00;;;;5052837;28;20282;-57
2023/09/09 06:41:33;;;;;;;9.70;1.97;;;;;17.50;96201.00;;;;5053154;28;20188;-57
2023/09/09 06:44:00;;;;;;;2.63;2.10;;;;;17.70;96190.00;;;;5054428;28;20694;-57
2023/09/09 06:46:29;;;;;;;1.40;1.30;;;;;17.70;96194.00;;;;5056626;28;20558;-57
2023/09/09 06:49:03;;;;;;;1.80;1.70;;;;;17.80;96208.00;;;;5056995;28;20550;-61
2023/09/09 06:51:32;;;;;;;2.77;2.47;;;;;17.90;96196.00;;;;5057209;28;20239;-58
2023/09/09 06:54:03;;;;;;;2.60;2.37;;;;;18.10;96208.00;;;;5056317;28;20212;-58
2023/09/09 06:56:30;;;;;;;1.53;1.47;;;;;18.20;96198.00;;;;5056991;28;20196;-62
2023/09/09 06:58:57;;;;;;;1.97;1.87;;;;;18.20;96202.00;;;;5056614;28;20271;-64
2023/09/09 07:01:28;;;;;;;1.27;1.17;;;;;18.20;96198.00;;;;5056457;28;20196;-63
2023/09/09 07:03:55;;;;;;;2.23;2.13;;;;;18.40;96207.00;;;;5056478;28;20219;-64
2023/09/09 07:06:26;;;;;;;2.83;2.47;;;;;18.50;96202.00;;;;5056835;28;20200;-62
2023/09/09 07:08:57;;;;;;;2.83;2.53;;;;;18.70;96207.00;;;;5056841;28;20180;-70
2023/09/09 07:11:27;;;;;;;3.17;1.77;;;;;18.80;96212.00;;;;5051489;28;20204;-64
2023/09/09 07:13:54;;;;;;;2.30;2.20;;;;;19.00;96210.00;;;;5057378;28;20299;-63
2023/09/09 07:16:25;;;;;;;2.10;1.97;;;;;19.00;96213.00;;;;5057101;28;20218;-62
2023/09/09 07:18:55;;;;;;;2.20;2.00;;;;;19.20;96214.00;;;;5057428;28;20181;-63
2023/09/09 07:21:24;;;;;;;1.77;1.67;;;;;19.20;96213.00;;;;5056900;28;20662;-63
2023/09/09 07:23:57;;;;;;;1.53;1.43;;;;;19.40;96216.00;;;;5057726;28;20212;-62
2023/09/09 07:26:27;;;;;;;3.47;2.17;;;;;19.50;96215.00;;;;5057409;28;20644;-63
2023/09/09 07:28:57;;;;;;;2.00;1.50;;;;;19.50;96215.00;;;;5057781;28;20210;-63
2023/09/09 07:31:25;;;;;;;1.90;1.80;;;;;19.50;96217.00;;;;5056915;28;20278;-62
2023/09/09 07:33:53;;;;;;;1.20;1.20;;;;;19.70;96219.00;;;;5057465;28;20717;-62
2023/09/09 07:36:22;;;;;;;2.77;2.57;;;;;19.80;96211.00;;;;5057220;28;20243;-62
2023/09/09 07:39:13;;;;;;;2.60;2.40;;;;;19.90;96213.00;;;;5058002;28;20212;-63
2023/09/09 07:41:46;;;;;;;1.30;1.30;;;;;19.90;96217.00;;;;5038738;28;20191;-61
2023/09/09 07:44:16;;;;;;;1.85;1.75;;;;;20.20;96210.00;;;;5056989;28;20215;-62
2023/09/09 07:46:46;;;;;;;1.93;1.67;;;;;20.20;96206.00;;;;5057156;28;20192;-63
2023/09/09 07:49:22;;;;;;;1.42;1.35;;;;;20.30;96218.00;;;;5057427;28;20196;-63
2023/09/09 07:51:49;;;;;;;1.30;1.25;;;;;20.30;96211.00;;;;5056500;28;20578;-63
2023/09/09 07:54:20;;;;;;;1.55;1.45;;;;;20.50;96212.00;;;;5056316;28;20216;-63
2023/09/09 07:56:50;;;;;;;2.40;2.20;;;;;20.70;96208.00;;;;5056273;28;20308;-63
2023/09/09 07:59:23;;;;;;;1.52;1.42;;;;;20.80;96210.00;;;;5057106;28;20181;-63
2023/09/09 08:02:02;;;;;;;2.08;1.85;;;;;20.90;96210.00;;;;5038362;28;20557;-63
2023/09/09 08:04:31;;;;;;;1.77;1.67;;;;;21.10;96218.00;;;;5056370;28;20230;-61
2023/09/09 08:06:58;;;;;;;2.25;1.80;;;;;21.20;96219.00;;;;5056401;28;20254;-62
2023/09/09 08:09:31;;;;;;;1.73;1.63;;;;;21.10;96221.00;;;;5038646;28;20200;-62
2023/09/09 08:12:05;;;;;;;1.85;1.75;;;;;21.20;96219.00;;;;5056410;28;20207;-62
2023/09/09 08:14:32;;;;;;;2.28;2.10;;;;;21.50;96221.00;;;;5056347;28;20216;-63
2023/09/09 08:17:05;;;;;;;2.05;1.95;;;;;21.50;96222.00;;;;5056348;28;20195;-62
2023/09/09 08:19:34;;;;;;;3.03;2.70;;;;;21.70;96231.00;;;;5056549;28;20199;-62
2023/09/09 08:22:04;;;;;;;1.05;1.02;;;;;21.90;96228.00;;;;5055854;28;20553;-62
2023/09/09 08:24:34;;;;;;;2.47;2.28;;;;;22.00;96233.00;;;;5055576;28;20215;-62
2023/09/09 08:27:06;;;;;;;2.47;2.10;;;;;22.20;96230.00;;;;5056053;28;20187;-62
2023/09/09 08:29:35;;;;;;;2.63;2.35;;;;;22.30;96231.00;;;;5055042;28;20181;-62
2023/09/09 08:32:09;;;;;;;1.75;1.65;;;;;22.50;96237.00;;;;5054998;28;20238;-62
2023/09/09 08:34:44;;;;;;;2.60;2.40;;;;;22.80;96234.00;;;;5055825;28;20212;-62
2023/09/09 08:37:13;;;;;;;2.20;2.10;;;;;22.90;96231.00;;;;5037040;28;20199;-61
2023/09/09 08:39:50;;;;;;;1.33;1.23;;;;;22.90;96230.00;;;;5056445;28;20695;-62
2023/09/09 08:42:34;;;;;;;2.00;1.90;;;;;22.90;96221.00;;;;5056880;28;20188;-62
2023/09/09 08:45:13;;;;;;;2.22;2.05;;;;;23.20;96227.00;;;;5056489;28;20275;-62
2023/09/09 08:47:49;;;;;;;2.25;1.92;;;;;23.40;96223.00;;;;5056274;28;20650;-62
2023/09/09 08:50:37;;;;;;;1.48;1.48;;;;;23.40;96221.00;;;;5054994;28;20180;-63
2023/09/09 08:53:17;;;;;;;2.15;1.95;;;;;23.60;96220.00;;;;5054886;28;20237;-62
2023/09/09 08:55:47;;;;;;;1.30;1.30;;;;;23.80;96222.00;;;;5054964;28;20204;-62
2023/09/09 08:58:14;;;;;;;1.10;1.10;;;;;24.00;96223.00;;;;5054607;28;20184;-62
2023/09/09 09:00:51;;;;;;;1.33;1.33;;;;;24.10;96220.00;;;;5054487;28;20200;-62
2023/09/09 09:03:20;;;;;;;1.95;1.83;;;;;24.30;96229.00;;;;5054670;28;20572;-62
2023/09/09 09:05:52;;;;;;;1.73;1.63;;;;;24.50;96228.00;;;;5055750;28;20275;-62
2023/09/09 09:08:24;;;;;;;1.88;1.77;;;;;24.60;96230.00;;;;5053708;28;20501;-62
2023/09/09 09:10:53;;;;;;;1.70;1.60;;;;;24.70;96218.00;;;;5055007;28;20212;-62
2023/09/09 09:13:20;;;;;;;1.10;1.10;;;;;24.90;96229.00;;;;5054407;28;20681;-62
2023/09/09 09:15:50;;;;;;;1.00;1.00;;;;;25.10;96221.00;;;;5054048;28;20223;-62
2023/09/09 09:18:17;;;;;;;1.15;1.15;;;;;25.00;96219.00;;;;5054127;28;20289;-62
2023/09/09 09:20:49;;;;;;;5.78;2.22;;;;;25.10;96233.00;;;;5054689;28;20196;-62
2023/09/09 09:23:16;;;;;;;1.15;1.15;;;;;25.20;96229.00;;;;5054655;28;20234;-62
2023/09/09 09:25:49;;;;;;;1.50;1.42;;;;;25.20;96223.00;;;;5054160;28;20544;-62
2023/09/09 09:28:29;;;;;;;1.60;1.50;;;;;25.30;96228.00;;;;5054105;28;20176;-62
2023/09/09 09:30:57;;;;;;;2.15;1.80;;;;;25.40;96218.00;;;;5053778;28;20184;-63
2023/09/09 09:33:25;;;;;;;0.95;0.95;;;;;25.50;96218.00;;;;5053972;28;20192;-63
2023/09/09 09:36:01;;;;;;;1.50;1.40;;;;;25.60;96219.00;;;;5054235;28;20215;-62
2023/09/09 09:38:28;;;;;;;4.45;1.63;;;;;25.70;96192.00;;;;5054135;28;20607;-65
2023/09/09 09:41:00;;;;;;;1.33;1.33;;;;;26.00;96213.00;;;;5036030;28;20547;-63
2023/09/09 09:43:34;;;;;;;1.75;1.65;;;;;25.80;96213.00;;;;5053982;28;20222;-63
2023/09/09 09:46:14;;;;;;;1.63;1.52;;;;;25.90;96211.00;;;;5053960;28;20642;-64
2023/09/09 09:48:48;;;;;;;10.88;2.00;;;;;26.00;96214.00;;;;5054093;28;20208;-63
2023/09/09 09:51:16;;;;;;;1.65;1.55;;;;;26.10;96211.00;;;;5054111;28;20552;-63
2023/09/09 09:53:53;;;;;;;1.42;1.33;;;;;26.20;96206.00;;;;5053740;28;20261;-63
2023/09/09 09:56:21;;;;;;;1.80;1.70;;;;;26.30;96210.00;;;;5053853;28;20299;-64
2023/09/09 09:58:53;;;;;;;1.70;1.60;;;;;26.50;96209.00;;;;5053330;28;20208;-63
2023/09/09 10:01:20;;;;;;;1.90;1.80;;;;;26.70;96215.00;;;;5053772;28;20283;-64
2023/09/09 10:03:51;;;;;;;1.63;1.42;;;;;26.90;96213.00;;;;5053739;28;20218;-63
2023/09/09 10:06:28;;;;;;;1.02;1.02;;;;;27.10;96212.00;;;;5053895;28;20245;-63
2023/09/09 10:09:03;;;;;;;0.95;0.95;;;;;27.20;96214.00;;;;5053861;28;20176;-63
2023/09/09 10:11:55;;;;;;;3.13;1.75;;;;;27.20;96204.00;;;;5054096;28;20596;-64
2023/09/09 10:14:27;;;;;;;2.05;1.50;;;;;27.50;96206.00;;;;5053523;28;20231;-63
2023/09/09 10:16:58;;;;;;;1.45;1.35;;;;;27.70;96202.00;;;;5053888;28;20215;-64
2023/09/09 10:19:42;;;;;;;1.58;1.48;;;;;27.70;96203.00;;;;5053837;28;20198;-64
2023/09/09 10:22:12;;;;;;;1.05;1.05;;;;;27.90;96204.00;;;;5054240;28;20206;-64
2023/09/09 10:24:43;;;;;;;1.48;1.38;;;;;28.00;96196.00;;;;5053410;28;20796;-64
2023/09/09 10:27:14;;;;;;;1.00;1.00;;;;;27.80;96194.00;;;;5053576;28;20180;-64
2023/09/09 10:29:44;;;;;;;2.08;1.98;;;;;28.20;96193.00;;;;5054683;28;20180;-64
2023/09/09 10:32:13;;;;;;;0.85;0.85;;;;;28.30;96195.00;;;;5036417;28;20192;-64
2023/09/09 10:34:44;;;;;;;1.83;1.50;;;;;28.40;96195.00;;;;5036490;28;20220;-64
2023/09/09 10:37:14;;;;;;;1.42;1.35;;;;;28.80;96187.00;;;;5054231;28;20200;-64
2023/09/09 10:39:47;;;;;;;1.48;1.38;;;;;29.00;96194.00;;;;5054813;28;20211;-64
2023/09/09 10:42:18;;;;;;;1.10;1.10;;;;;29.20;96199.00;;;;5054411;28;20177;-64
2023/09/09 10:44:49;;;;;;;2.25;1.75;;;;;29.50;96189.00;;;;5053886;28;20572;-64
2023/09/09 10:47:17;;;;;;;2.10;1.90;;;;;29.70;96189.00;;;;5054419;28;20180;-64
2023/09/09 10:49:45;;;;;;;2.58;2.38;;;;;29.70;96192.00;;;;5054191;28;20284;-64
2023/09/09 10:52:35;;;;;;;0.90;0.90;;;;;29.60;96193.00;;;;5053159;28;20196;-64
2023/09/09 10:55:14;;;;;;;1.45;1.40;;;;;29.90;96191.00;;;;5052414;28;20590;-63
2023/09/09 10:57:41;;;;;;;1.50;1.40;;;;;30.30;96194.00;;;;5053042;28;20172;-64
2023/09/09 11:00:38;;;;;;;1.30;1.30;;;;;30.00;96189.00;;;;5034705;28;20200;-64
2023/09/09 11:03:18;;;;;;;1.17;1.13;;;;;30.30;96192.00;;;;5034907;28;20206;-64
2023/09/09 11:06:03;;;;;;;2.22;1.40;;;;;30.70;96198.00;;;;5053629;28;20613;-64
2023/09/09 11:08:35;;;;;;;1.70;1.60;;;;;30.90;96190.00;;;;5053068;28;20638;-64
2023/09/09 11:11:08;;;;;;;0.95;0.95;;;;;31.00;96199.00;;;;5035340;28;20188;-64
2023/09/09 11:13:43;;;;;;;2.22;1.77;;;;;31.30;96214.00;;;;5053070;28;20212;-64
2023/09/09 11:16:31;;;;;;;1.65;1.55;;;;;31.10;96202.00;;;;5052423;28;20214;-64
2023/09/09 11:19:05;;;;;;;1.45;1.35;;;;;31.40;96198.00;;;;5052567;28;20187;-64
2023/09/09 11:21:39;;;;;;;1.50;1.42;;;;;31.50;96200.00;;;;5052596;28;20180;-64
2023/09/09 11:24:07;;;;;;;2.53;1.55;;;;;31.50;96211.00;;;;5052490;28;20216;-64
2023/09/09 11:26:38;;;;;;;3.20;2.15;;;;;31.20;96195.00;;;;5052578;28;20188;-64
2023/09/09 11:29:09;;;;;;;1.98;1.88;;;;;31.60;96189.00;;;;5034674;28;20199;-64
2023/09/09 11:31:44;;;;;;;1.70;1.60;;;;;31.70;96192.00;;;;5054739;28;20241;-64
2023/09/09 11:34:11;;;;;;;2.70;1.83;;;;;31.80;96200.00;;;;5056262;28;20310;-64
2023/09/09 11:36:39;;;;;;;3.22;1.92;;;;;32.10;96194.00;;;;5055912;28;20698;-63
2023/09/09 11:39:08;;;;;;;1.70;1.60;;;;;32.10;96198.00;;;;5057074;28;20227;-63
2023/09/09 11:41:38;;;;;;;3.70;1.70;;;;;32.10;96194.00;;;;5056355;28;20192;-63
2023/09/09 11:44:08;;;;;;;2.08;1.80;;;;;32.10;96193.00;;;;5056136;28;20694;-63
2023/09/09 11:46:41;;;;;;;2.17;1.95;;;;;32.30;96197.00;;;;5056030;28;20211;-64
2023/09/09 11:49:09;;;;;;;2.15;1.98;;;;;32.40;96192.00;;;;5056111;28;20639;-63
2023/09/09 11:51:40;;;;;;;1.60;1.50;;;;;32.50;96197.00;;;;5055776;28;20177;-63
2023/09/09 11:54:10;;;;;;;2.42;2.22;;;;;32.60;96191.00;;;;5055456;28;20220;-69
2023/09/09 11:56:38;;;;;;;1.85;1.70;;;;;32.70;96196.00;;;;5055818;28;20216;-63
2023/09/09 11:59:08;;;;;;;2.38;2.17;;;;;32.50;96190.00;;;;5055400;28;20214;-63
2023/09/09 12:01:43;;;;;;;1.77;1.42;;;;;32.90;96187.00;;;;5055438;28;20176;-63
2023/09/09 12:04:11;;;;;;;2.53;1.60;;;;;33.00;96194.00;;;;5055361;28;20322;-63
2023/09/09 12:06:40;;;;;;;1.85;1.75;;;;;33.00;96183.00;;;;5055775;28;20189;-63
2023/09/09 12:09:10;;;;;;;1.90;1.80;;;;;32.70;96190.00;;;;5055485;28;20203;-63
2023/09/09 12:11:42;;;;;;;1.58;1.48;;;;;32.60;96193.00;;;;5055421;28;20584;-63
2023/09/09 12:14:14;;;;;;;2.20;2.00;;;;;32.90;96191.00;;;;5037150;28;20224;-63
2023/09/09 12:16:47;;;;;;;1.80;1.70;;;;;33.20;96194.00;;;;5055024;28;20273;-65
2023/09/09 12:19:14;;;;;;;2.95;1.88;;;;;33.20;96191.00;;;;5055024;28;20191;-64
2023/09/09 12:21:48;;;;;;;1.42;1.33;;;;;33.40;96196.00;;;;5055385;28;20197;-63
2023/09/09 12:24:16;;;;;;;1.58;1.48;;;;;33.30;96190.00;;;;5055122;28;20226;-63
2023/09/09 12:26:54;;;;;;;3.10;2.65;;;;;33.40;96187.00;;;;5054821;28;20192;-64
2023/09/09 12:29:21;;;;;;;1.60;1.52;;;;;33.60;96196.00;;;;5055066;28;20608;-64
2023/09/09 12:31:54;;;;;;;2.28;1.70;;;;;33.80;96193.00;;;;5054814;28;20192;-64
2023/09/09 12:34:23;;;;;;;2.10;1.88;;;;;33.70;96194.00;;;;5055081;28;20682;-63
2023/09/09 12:36:59;;;;;;;0.95;0.95;;;;;33.60;96190.00;;;;5055015;28;20582;-63
2023/09/09 12:39:28;;;;;;;2.05;1.95;;;;;33.40;96184.00;;;;5055388;28;20230;-63
2023/09/09 12:42:03;;;;;;;1.65;1.55;;;;;33.30;96210.00;;;;5055233;28;20192;-63
2023/09/09 12:44:34;;;;;;;1.33;1.23;;;;;32.90;96204.00;;;;5055022;28;20232;-63
2023/09/09 12:47:08;;;;;;;1.90;1.75;;;;;33.10;96199.00;;;;5054493;28;20190;-63
2023/09/09 12:49:35;;;;;;;4.40;1.65;;;;;33.40;96199.00;;;;5054451;28;20187;-63
2023/09/09 12:52:03;;;;;;;1.60;1.50;;;;;33.70;96198.00;;;;5054389;28;20199;-63
2023/09/09 12:54:30;;;;;;;1.83;1.65;;;;;33.90;96199.00;;;;5054567;28;20211;-64
2023/09/09 12:57:00;;;;;;;1.95;1.85;;;;;33.90;96194.00;;;;5054138;28;20228;-64
2023/09/09 12:59:27;;;;;;;1.30;1.20;;;;;34.10;96192.00;;;;5054167;28;20200;-64
2023/09/09 13:01:58;;;;;;;2.08;1.88;;;;;34.10;96199.00;;;;5054336;28;20188;-64
2023/09/09 13:04:26;;;;;;;2.38;2.17;;;;;34.50;96202.00;;;;5054541;28;20682;-64